sensor_id;sensor_type;location;lat;lon;timestamp;P1;durP1;ratioP1;P2;durP2;ratioP2
24613;SDS011;12760;46.296;25.290;2023-05-10T00:02:25;2.03;;;2.00;;
24613;SDS011;12760;46.296;25.290;2023-05-10T00:04:51;2.50;;;2.38;;
24613;SDS011;12760;46.296;25.290;2023-05-10T00:07:17;1.58;;;1.58;;
24613;SDS011;12760;46.296;25.290;2023-05-10T00:09:43;1.45;;;1.45;;
24613;SDS011;12760;46.296;25.290;2023-05-10T00:12:09;1.83;;;1.83;;
24613;SDS011;12760;46.296;25.290;2023-05-10T00:14:35;2.67;;;2.58;;
24613;SDS011;12760;46.296;25.290;2023-05-10T00:17:00;1.52;;;1.52;;
24613;SDS011;12760;46.296;25.290;2023-05-10T00:19:26;1.85;;;1.85;;
24613;SDS011;12760;46.296;25.290;2023-05-10T00:21:52;2.10;;;2.10;;
24613;SDS011;12760;46.296;25.290;2023-05-10T00:24:18;1.30;;;1.30;;
24613;SDS011;12760;46.296;25.290;2023-05-10T00:26:43;1.88;;;1.88;;
24613;SDS011;12760;46.296;25.290;2023-05-10T00:29:09;1.73;;;1.73;;
24613;SDS011;12760;46.296;25.290;2023-05-10T00:31:35;1.52;;;1.52;;
24613;SDS011;12760;46.296;25.290;2023-05-10T00:34:01;1.40;;;1.40;;
24613;SDS011;12760;46.296;25.290;2023-05-10T00:36:26;1.45;;;1.45;;
24613;SDS011;12760;46.296;25.290;2023-05-10T00:38:53;1.92;;;1.92;;
24613;SDS011;12760;46.296;25.290;2023-05-10T00:41:19;1.55;;;1.55;;
24613;SDS011;12760;46.296;25.290;2023-05-10T00:43:46;1.92;;;1.92;;
24613;SDS011;12760;46.296;25.290;2023-05-10T00:46:11;2.72;;;2.63;;
24613;SDS011;12760;46.296;25.290;2023-05-10T00:48:39;1.70;;;1.70;;
24613;SDS011;12760;46.296;25.290;2023-05-10T00:51:05;1.75;;;1.75;;
24613;SDS011;12760;46.296;25.290;2023-05-10T00:53:31;2.80;;;2.70;;
24613;SDS011;12760;46.296;25.290;2023-05-10T00:55:58;2.40;;;2.20;;
24613;SDS011;12760;46.296;25.290;2023-05-10T00:58:24;1.58;;;1.58;;
24613;SDS011;12760;46.296;25.290;2023-05-10T01:00:53;3.33;;;3.22;;
24613;SDS011;12760;46.296;25.290;2023-05-10T01:03:22;1.98;;;1.92;;
24613;SDS011;12760;46.296;25.290;2023-05-10T01:05:47;1.48;;;1.48;;
24613;SDS011;12760;46.296;25.290;2023-05-10T01:08:13;1.65;;;1.65;;
24613;SDS011;12760;46.296;25.290;2023-05-10T01:10:39;2.20;;;2.10;;
24613;SDS011;12760;46.296;25.290;2023-05-10T01:13:05;1.95;;;1.95;;
24613;SDS011;12760;46.296;25.290;2023-05-10T01:15:31;6.13;;;2.83;;
24613;SDS011;12760;46.296;25.290;2023-05-10T01:17:57;1.15;;;1.15;;
24613;SDS011;12760;46.296;25.290;2023-05-10T01:20:24;2.83;;;2.65;;
24613;SDS011;12760;46.296;25.290;2023-05-10T01:34:22;3.70;;;3.00;;
24613;SDS011;12760;46.296;25.290;2023-05-10T01:36:58;3.33;;;3.13;;
24613;SDS011;12760;46.296;25.290;2023-05-10T01:39:42;3.13;;;2.92;;
24613;SDS011;12760;46.296;25.290;2023-05-10T01:42:16;2.20;;;2.20;;
24613;SDS011;12760;46.296;25.290;2023-05-10T01:44:49;2.00;;;2.00;;
24613;SDS011;12760;46.296;25.290;2023-05-10T01:47:44;1.40;;;1.40;;
24613;SDS011;12760;46.296;25.290;2023-05-10T01:50:24;2.80;;;2.70;;
24613;SDS011;12760;46.296;25.290;2023-05-10T01:52:54;1.53;;;1.53;;
24613;SDS011;12760;46.296;25.290;2023-05-10T01:55:25;1.80;;;1.80;;
24613;SDS011;12760;46.296;25.290;2023-05-10T01:58:04;2.10;;;2.00;;
24613;SDS011;12760;46.296;25.290;2023-05-10T02:00:33;2.17;;;2.17;;
24613;SDS011;12760;46.296;25.290;2023-05-10T02:03:01;2.17;;;2.17;;
24613;SDS011;12760;46.296;25.290;2023-05-10T02:05:31;2.07;;;2.07;;
24613;SDS011;12760;46.296;25.290;2023-05-10T02:07:58;2.27;;;2.27;;
24613;SDS011;12760;46.296;25.290;2023-05-10T02:10:26;1.90;;;1.90;;
24613;SDS011;12760;46.296;25.290;2023-05-10T02:12:53;1.80;;;1.80;;
24613;SDS011;12760;46.296;25.290;2023-05-10T02:15:23;1.93;;;1.87;;
24613;SDS011;12760;46.296;25.290;2023-05-10T02:17:50;2.20;;;2.20;;
24613;SDS011;12760;46.296;25.290;2023-05-10T02:20:19;1.73;;;1.73;;
24613;SDS011;12760;46.296;25.290;2023-05-10T02:22:47;2.20;;;2.10;;
24613;SDS011;12760;46.296;25.290;2023-05-10T02:25:15;2.00;;;2.00;;
24613;SDS011;12760;46.296;25.290;2023-05-10T02:27:42;1.73;;;1.73;;
24613;SDS011;12760;46.296;25.290;2023-05-10T02:30:09;1.93;;;1.93;;
24613;SDS011;12760;46.296;25.290;2023-05-10T02:32:36;2.57;;;2.47;;
24613;SDS011;12760;46.296;25.290;2023-05-10T02:35:02;1.93;;;1.93;;
24613;SDS011;12760;46.296;25.290;2023-05-10T02:37:29;1.70;;;1.70;;
24613;SDS011;12760;46.296;25.290;2023-05-10T02:39:57;3.03;;;2.93;;
24613;SDS011;12760;46.296;25.290;2023-05-10T02:42:27;2.53;;;2.43;;
24613;SDS011;12760;46.296;25.290;2023-05-10T02:44:55;2.03;;;2.03;;
24613;SDS011;12760;46.296;25.290;2023-05-10T02:47:25;2.00;;;2.00;;
24613;SDS011;12760;46.296;25.290;2023-05-10T02:49:51;2.10;;;2.10;;
24613;SDS011;12760;46.296;25.290;2023-05-10T02:52:19;3.70;;;3.50;;
24613;SDS011;12760;46.296;25.290;2023-05-10T02:54:49;6.10;;;5.03;;
24613;SDS011;12760;46.296;25.290;2023-05-10T02:57:17;18.87;;;6.30;;
24613;SDS011;12760;46.296;25.290;2023-05-10T02:59:47;4.93;;;4.70;;
24613;SDS011;12760;46.296;25.290;2023-05-10T03:02:13;3.27;;;3.17;;
24613;SDS011;12760;46.296;25.290;2023-05-10T03:04:38;7.00;;;3.37;;
24613;SDS011;12760;46.296;25.290;2023-05-10T03:07:04;2.57;;;2.47;;
24613;SDS011;12760;46.296;25.290;2023-05-10T03:09:30;2.80;;;2.70;;
24613;SDS011;12760;46.296;25.290;2023-05-10T03:12:07;1.97;;;1.97;;
24613;SDS011;12760;46.296;25.290;2023-05-10T03:15:02;2.60;;;2.50;;
24613;SDS011;12760;46.296;25.290;2023-05-10T03:17:52;2.67;;;2.57;;
24613;SDS011;12760;46.296;25.290;2023-05-10T03:20:32;2.37;;;2.30;;
24613;SDS011;12760;46.296;25.290;2023-05-10T03:23:13;1.80;;;1.80;;
24613;SDS011;12760;46.296;25.290;2023-05-10T03:25:43;2.63;;;2.53;;
24613;SDS011;12760;46.296;25.290;2023-05-10T03:28:11;2.27;;;2.23;;
24613;SDS011;12760;46.296;25.290;2023-05-10T03:30:39;2.20;;;2.20;;
24613;SDS011;12760;46.296;25.290;2023-05-10T03:33:06;2.30;;;2.30;;
24613;SDS011;12760;46.296;25.290;2023-05-10T03:35:32;2.47;;;2.37;;
24613;SDS011;12760;46.296;25.290;2023-05-10T03:37:58;2.17;;;2.17;;
24613;SDS011;12760;46.296;25.290;2023-05-10T03:40:24;2.30;;;2.30;;
24613;SDS011;12760;46.296;25.290;2023-05-10T03:42:51;1.87;;;1.87;;
24613;SDS011;12760;46.296;25.290;2023-05-10T03:45:17;4.07;;;3.87;;
24613;SDS011;12760;46.296;25.290;2023-05-10T03:47:43;30.67;;;4.20;;
24613;SDS011;12760;46.296;25.290;2023-05-10T03:50:08;2.73;;;2.63;;
24613;SDS011;12760;46.296;25.290;2023-05-10T03:52:35;2.07;;;2.07;;
24613;SDS011;12760;46.296;25.290;2023-05-10T03:55:01;4.33;;;4.13;;
24613;SDS011;12760;46.296;25.290;2023-05-10T03:57:28;4.53;;;4.33;;
24613;SDS011;12760;46.296;25.290;2023-05-10T03:59:54;2.87;;;2.77;;
24613;SDS011;12760;46.296;25.290;2023-05-10T04:02:20;3.93;;;3.73;;
24613;SDS011;12760;46.296;25.290;2023-05-10T04:04:45;3.60;;;3.43;;
24613;SDS011;12760;46.296;25.290;2023-05-10T04:07:11;3.03;;;2.87;;
24613;SDS011;12760;46.296;25.290;2023-05-10T04:09:37;3.17;;;3.07;;
24613;SDS011;12760;46.296;25.290;2023-05-10T04:12:02;31.27;;;4.50;;
24613;SDS011;12760;46.296;25.290;2023-05-10T04:14:28;4.37;;;4.17;;
24613;SDS011;12760;46.296;25.290;2023-05-10T04:16:54;4.07;;;2.87;;
24613;SDS011;12760;46.296;25.290;2023-05-10T04:19:20;3.10;;;3.00;;
24613;SDS011;12760;46.296;25.290;2023-05-10T04:21:45;4.83;;;4.60;;
24613;SDS011;12760;46.296;25.290;2023-05-10T04:24:11;1.83;;;1.83;;
24613;SDS011;12760;46.296;25.290;2023-05-10T04:26:37;3.00;;;2.90;;
24613;SDS011;12760;46.296;25.290;2023-05-10T04:29:03;2.73;;;2.63;;
24613;SDS011;12760;46.296;25.290;2023-05-10T04:31:28;3.07;;;2.97;;
24613;SDS011;12760;46.296;25.290;2023-05-10T04:33:54;3.73;;;3.60;;
24613;SDS011;12760;46.296;25.290;2023-05-10T04:36:20;3.93;;;3.73;;
24613;SDS011;12760;46.296;25.290;2023-05-10T04:38:45;2.60;;;2.53;;
24613;SDS011;12760;46.296;25.290;2023-05-10T04:41:11;4.30;;;4.03;;
24613;SDS011;12760;46.296;25.290;2023-05-10T04:43:37;7.70;;;5.57;;
24613;SDS011;12760;46.296;25.290;2023-05-10T04:46:03;1.80;;;1.80;;
24613;SDS011;12760;46.296;25.290;2023-05-10T04:48:30;4.17;;;3.97;;
24613;SDS011;12760;46.296;25.290;2023-05-10T04:50:55;2.20;;;2.20;;
24613;SDS011;12760;46.296;25.290;2023-05-10T04:53:21;3.97;;;2.70;;
24613;SDS011;12760;46.296;25.290;2023-05-10T04:55:47;1.80;;;1.80;;
24613;SDS011;12760;46.296;25.290;2023-05-10T04:58:13;2.43;;;2.33;;
24613;SDS011;12760;46.296;25.290;2023-05-10T05:00:39;2.37;;;2.30;;
24613;SDS011;12760;46.296;25.290;2023-05-10T05:03:05;2.67;;;2.57;;
24613;SDS011;12760;46.296;25.290;2023-05-10T05:05:31;1.97;;;1.97;;
24613;SDS011;12760;46.296;25.290;2023-05-10T05:07:56;2.30;;;2.27;;
24613;SDS011;12760;46.296;25.290;2023-05-10T05:10:22;2.40;;;2.40;;
24613;SDS011;12760;46.296;25.290;2023-05-10T05:12:48;2.90;;;2.80;;
24613;SDS011;12760;46.296;25.290;2023-05-10T05:15:14;4.27;;;4.03;;
24613;SDS011;12760;46.296;25.290;2023-05-10T05:17:41;4.47;;;3.73;;
24613;SDS011;12760;46.296;25.290;2023-05-10T05:20:07;5.40;;;4.70;;
24613;SDS011;12760;46.296;25.290;2023-05-10T05:22:35;2.83;;;2.63;;
24613;SDS011;12760;46.296;25.290;2023-05-10T05:25:01;1.67;;;1.67;;
24613;SDS011;12760;46.296;25.290;2023-05-10T05:27:28;13.00;;;4.90;;
24613;SDS011;12760;46.296;25.290;2023-05-10T05:29:57;2.87;;;2.77;;
24613;SDS011;12760;46.296;25.290;2023-05-10T05:32:24;3.33;;;3.17;;
24613;SDS011;12760;46.296;25.290;2023-05-10T05:34:50;2.60;;;2.47;;
24613;SDS011;12760;46.296;25.290;2023-05-10T05:37:20;2.90;;;2.77;;
24613;SDS011;12760;46.296;25.290;2023-05-10T05:39:49;3.23;;;3.03;;
24613;SDS011;12760;46.296;25.290;2023-05-10T05:42:15;2.10;;;2.10;;
24613;SDS011;12760;46.296;25.290;2023-05-10T05:44:42;3.30;;;3.20;;
24613;SDS011;12760;46.296;25.290;2023-05-10T05:47:08;3.53;;;3.33;;
24613;SDS011;12760;46.296;25.290;2023-05-10T05:49:34;3.13;;;3.03;;
24613;SDS011;12760;46.296;25.290;2023-05-10T05:52:00;2.30;;;2.20;;
24613;SDS011;12760;46.296;25.290;2023-05-10T05:54:27;3.20;;;3.00;;
24613;SDS011;12760;46.296;25.290;2023-05-10T05:56:53;2.35;;;2.28;;
24613;SDS011;12760;46.296;25.290;2023-05-10T05:59:23;19.15;;;3.10;;
24613;SDS011;12760;46.296;25.290;2023-05-10T06:01:49;1.80;;;1.80;;
24613;SDS011;12760;46.296;25.290;2023-05-10T06:04:15;2.75;;;2.58;;
24613;SDS011;12760;46.296;25.290;2023-05-10T06:06:41;1.38;;;1.38;;
24613;SDS011;12760;46.296;25.290;2023-05-10T06:09:07;1.30;;;1.30;;
24613;SDS011;12760;46.296;25.290;2023-05-10T06:11:33;1.23;;;1.23;;
24613;SDS011;12760;46.296;25.290;2023-05-10T06:13:59;2.63;;;2.53;;
24613;SDS011;12760;46.296;25.290;2023-05-10T06:16:26;1.25;;;1.25;;
24613;SDS011;12760;46.296;25.290;2023-05-10T06:18:52;1.52;;;1.52;;
24613;SDS011;12760;46.296;25.290;2023-05-10T06:21:18;1.58;;;1.58;;
24613;SDS011;12760;46.296;25.290;2023-05-10T06:23:44;8.48;;;5.20;;
24613;SDS011;12760;46.296;25.290;2023-05-10T06:26:10;3.03;;;2.28;;
24613;SDS011;12760;46.296;25.290;2023-05-10T06:28:36;1.55;;;1.55;;
24613;SDS011;12760;46.296;25.290;2023-05-10T06:31:04;1.50;;;1.50;;
24613;SDS011;12760;46.296;25.290;2023-05-10T06:33:31;3.00;;;1.70;;
24613;SDS011;12760;46.296;25.290;2023-05-10T06:35:57;1.00;;;1.00;;
24613;SDS011;12760;46.296;25.290;2023-05-10T06:38:23;6.45;;;3.70;;
24613;SDS011;12760;46.296;25.290;2023-05-10T06:40:49;2.65;;;2.53;;
24613;SDS011;12760;46.296;25.290;2023-05-10T06:43:15;1.10;;;1.10;;
24613;SDS011;12760;46.296;25.290;2023-05-10T06:45:40;0.90;;;0.90;;
24613;SDS011;12760;46.296;25.290;2023-05-10T06:48:06;1.55;;;1.55;;
24613;SDS011;12760;46.296;25.290;2023-05-10T06:50:32;1.02;;;1.02;;
24613;SDS011;12760;46.296;25.290;2023-05-10T06:52:58;8.32;;;4.68;;
24613;SDS011;12760;46.296;25.290;2023-05-10T06:55:24;4.93;;;4.00;;
24613;SDS011;12760;46.296;25.290;2023-05-10T06:57:51;2.75;;;2.60;;
24613;SDS011;12760;46.296;25.290;2023-05-10T07:00:17;0.93;;;0.93;;
24613;SDS011;12760;46.296;25.290;2023-05-10T07:02:43;1.70;;;1.27;;
24613;SDS011;12760;46.296;25.290;2023-05-10T07:05:09;2.05;;;1.73;;
24613;SDS011;12760;46.296;25.290;2023-05-10T07:07:35;1.00;;;1.00;;
24613;SDS011;12760;46.296;25.290;2023-05-10T07:10:01;14.07;;;6.20;;
24613;SDS011;12760;46.296;25.290;2023-05-10T07:12:27;8.77;;;7.80;;
24613;SDS011;12760;46.296;25.290;2023-05-10T07:14:53;1.40;;;1.30;;
24613;SDS011;12760;46.296;25.290;2023-05-10T07:17:18;9.98;;;2.22;;
24613;SDS011;12760;46.296;25.290;2023-05-10T07:19:44;0.77;;;0.77;;
24613;SDS011;12760;46.296;25.290;2023-05-10T07:22:10;1.15;;;1.10;;
24613;SDS011;12760;46.296;25.290;2023-05-10T07:24:36;4.97;;;2.35;;
24613;SDS011;12760;46.296;25.290;2023-05-10T07:27:02;1.17;;;1.17;;
24613;SDS011;12760;46.296;25.290;2023-05-10T07:29:28;0.82;;;0.82;;
24613;SDS011;12760;46.296;25.290;2023-05-10T07:31:53;0.77;;;0.77;;
24613;SDS011;12760;46.296;25.290;2023-05-10T07:34:19;0.70;;;0.70;;
24613;SDS011;12760;46.296;25.290;2023-05-10T07:36:45;1.10;;;1.10;;
24613;SDS011;12760;46.296;25.290;2023-05-10T07:39:11;1.27;;;1.27;;
24613;SDS011;12760;46.296;25.290;2023-05-10T07:41:37;0.82;;;0.82;;
24613;SDS011;12760;46.296;25.290;2023-05-10T07:44:03;0.70;;;0.70;;
24613;SDS011;12760;46.296;25.290;2023-05-10T07:46:30;1.75;;;1.55;;
24613;SDS011;12760;46.296;25.290;2023-05-10T07:48:55;0.73;;;0.73;;
24613;SDS011;12760;46.296;25.290;2023-05-10T07:51:21;0.50;;;0.50;;
24613;SDS011;12760;46.296;25.290;2023-05-10T07:53:47;0.70;;;0.70;;
24613;SDS011;12760;46.296;25.290;2023-05-10T07:56:20;0.90;;;0.90;;
24613;SDS011;12760;46.296;25.290;2023-05-10T07:58:46;0.60;;;0.60;;
24613;SDS011;12760;46.296;25.290;2023-05-10T08:01:11;0.60;;;0.60;;
24613;SDS011;12760;46.296;25.290;2023-05-10T08:03:37;0.60;;;0.60;;
24613;SDS011;12760;46.296;25.290;2023-05-10T08:06:03;0.70;;;0.70;;
24613;SDS011;12760;46.296;25.290;2023-05-10T08:08:29;0.80;;;0.75;;
24613;SDS011;12760;46.296;25.290;2023-05-10T08:10:54;1.42;;;1.42;;
24613;SDS011;12760;46.296;25.290;2023-05-10T08:13:20;0.73;;;0.73;;
24613;SDS011;12760;46.296;25.290;2023-05-10T08:15:46;1.23;;;1.20;;
24613;SDS011;12760;46.296;25.290;2023-05-10T08:18:12;0.90;;;0.90;;
24613;SDS011;12760;46.296;25.290;2023-05-10T08:20:38;0.80;;;0.80;;
24613;SDS011;12760;46.296;25.290;2023-05-10T08:23:04;13.25;;;2.28;;
24613;SDS011;12760;46.296;25.290;2023-05-10T08:25:31;0.95;;;0.95;;
24613;SDS011;12760;46.296;25.290;2023-05-10T08:27:57;1.25;;;1.25;;
24613;SDS011;12760;46.296;25.290;2023-05-10T08:30:22;0.60;;;0.60;;
24613;SDS011;12760;46.296;25.290;2023-05-10T08:32:48;1.40;;;1.30;;
24613;SDS011;12760;46.296;25.290;2023-05-10T08:35:15;1.52;;;1.42;;
24613;SDS011;12760;46.296;25.290;2023-05-10T08:37:41;0.70;;;0.70;;
24613;SDS011;12760;46.296;25.290;2023-05-10T08:40:06;2.85;;;1.70;;
24613;SDS011;12760;46.296;25.290;2023-05-10T08:42:36;1.75;;;1.50;;
24613;SDS011;12760;46.296;25.290;2023-05-10T08:45:08;0.93;;;0.93;;
24613;SDS011;12760;46.296;25.290;2023-05-10T08:47:38;1.80;;;1.38;;
24613;SDS011;12760;46.296;25.290;2023-05-10T08:50:04;1.50;;;1.50;;
24613;SDS011;12760;46.296;25.290;2023-05-10T08:52:31;0.88;;;0.88;;
24613;SDS011;12760;46.296;25.290;2023-05-10T08:55:01;1.13;;;1.13;;
24613;SDS011;12760;46.296;25.290;2023-05-10T08:57:28;0.98;;;0.98;;
24613;SDS011;12760;46.296;25.290;2023-05-10T08:59:53;0.50;;;0.50;;
24613;SDS011;12760;46.296;25.290;2023-05-10T09:02:19;0.68;;;0.68;;
24613;SDS011;12760;46.296;25.290;2023-05-10T09:04:46;2.38;;;0.85;;
24613;SDS011;12760;46.296;25.290;2023-05-10T09:07:11;1.20;;;1.20;;
24613;SDS011;12760;46.296;25.290;2023-05-10T09:09:37;0.90;;;0.90;;
24613;SDS011;12760;46.296;25.290;2023-05-10T09:12:03;0.70;;;0.70;;
24613;SDS011;12760;46.296;25.290;2023-05-10T09:14:29;2.05;;;1.30;;
24613;SDS011;12760;46.296;25.290;2023-05-10T09:16:56;1.25;;;1.20;;
24613;SDS011;12760;46.296;25.290;2023-05-10T09:19:22;0.90;;;0.90;;
24613;SDS011;12760;46.296;25.290;2023-05-10T09:21:48;1.67;;;1.58;;
24613;SDS011;12760;46.296;25.290;2023-05-10T09:24:14;0.80;;;0.80;;
24613;SDS011;12760;46.296;25.290;2023-05-10T09:26:46;1.77;;;1.33;;
24613;SDS011;12760;46.296;25.290;2023-05-10T09:29:13;1.08;;;1.08;;
24613;SDS011;12760;46.296;25.290;2023-05-10T09:31:52;1.30;;;1.30;;
24613;SDS011;12760;46.296;25.290;2023-05-10T09:34:28;1.38;;;1.38;;
24613;SDS011;12760;46.296;25.290;2023-05-10T09:36:55;1.05;;;1.05;;
24613;SDS011;12760;46.296;25.290;2023-05-10T09:39:32;0.55;;;0.55;;
24613;SDS011;12760;46.296;25.290;2023-05-10T09:41:59;1.30;;;1.20;;
24613;SDS011;12760;46.296;25.290;2023-05-10T09:44:30;1.40;;;1.30;;
24613;SDS011;12760;46.296;25.290;2023-05-10T09:46:57;0.80;;;0.80;;
24613;SDS011;12760;46.296;25.290;2023-05-10T09:49:23;1.98;;;1.88;;
24613;SDS011;12760;46.296;25.290;2023-05-10T09:52:02;1.60;;;1.52;;
24613;SDS011;12760;46.296;25.290;2023-05-10T09:54:32;2.78;;;1.33;;
24613;SDS011;12760;46.296;25.290;2023-05-10T09:56:58;1.15;;;1.15;;
24613;SDS011;12760;46.296;25.290;2023-05-10T09:59:26;0.73;;;0.73;;
24613;SDS011;12760;46.296;25.290;2023-05-10T10:01:55;3.90;;;1.33;;
24613;SDS011;12760;46.296;25.290;2023-05-10T10:04:23;2.65;;;1.65;;
24613;SDS011;12760;46.296;25.290;2023-05-10T10:07:02;0.80;;;0.80;;
24613;SDS011;12760;46.296;25.290;2023-05-10T10:09:29;0.80;;;0.80;;
24613;SDS011;12760;46.296;25.290;2023-05-10T10:11:55;0.98;;;0.98;;
24613;SDS011;12760;46.296;25.290;2023-05-10T10:14:22;1.63;;;1.52;;
24613;SDS011;12760;46.296;25.290;2023-05-10T10:16:49;0.98;;;0.98;;
24613;SDS011;12760;46.296;25.290;2023-05-10T10:19:16;1.30;;;1.30;;
24613;SDS011;12760;46.296;25.290;2023-05-10T10:21:46;1.10;;;1.10;;
24613;SDS011;12760;46.296;25.290;2023-05-10T10:24:15;1.42;;;1.38;;
24613;SDS011;12760;46.296;25.290;2023-05-10T10:26:41;0.85;;;0.85;;
24613;SDS011;12760;46.296;25.290;2023-05-10T10:34:16;0.80;;;0.80;;
24613;SDS011;12760;46.296;25.290;2023-05-10T10:36:56;0.80;;;0.80;;
24613;SDS011;12760;46.296;25.290;2023-05-10T10:39:23;1.10;;;1.10;;
24613;SDS011;12760;46.296;25.290;2023-05-10T10:41:53;1.10;;;1.10;;
24613;SDS011;12760;46.296;25.290;2023-05-10T10:49:33;0.73;;;0.73;;
24613;SDS011;12760;46.296;25.290;2023-05-10T10:52:15;0.93;;;0.93;;
24613;SDS011;12760;46.296;25.290;2023-05-10T11:00:26;0.70;;;0.70;;
24613;SDS011;12760;46.296;25.290;2023-05-10T11:02:53;0.63;;;0.63;;
24613;SDS011;12760;46.296;25.290;2023-05-10T11:05:23;5.90;;;1.40;;
24613;SDS011;12760;46.296;25.290;2023-05-10T11:07:54;0.73;;;0.73;;
24613;SDS011;12760;46.296;25.290;2023-05-10T11:10:21;0.80;;;0.80;;
24613;SDS011;12760;46.296;25.290;2023-05-10T11:13:04;0.60;;;0.60;;
24613;SDS011;12760;46.296;25.290;2023-05-10T11:15:38;1.15;;;1.15;;
24613;SDS011;12760;46.296;25.290;2023-05-10T11:20:43;0.68;;;0.68;;
24613;SDS011;12760;46.296;25.290;2023-05-10T11:23:14;0.77;;;0.77;;
24613;SDS011;12760;46.296;25.290;2023-05-10T11:25:42;3.05;;;2.50;;
24613;SDS011;12760;46.296;25.290;2023-05-10T11:28:09;0.60;;;0.60;;
24613;SDS011;12760;46.296;25.290;2023-05-10T11:30:36;0.80;;;0.80;;
24613;SDS011;12760;46.296;25.290;2023-05-10T11:33:08;0.80;;;0.80;;
24613;SDS011;12760;46.296;25.290;2023-05-10T11:35:40;0.60;;;0.60;;
24613;SDS011;12760;46.296;25.290;2023-05-10T11:38:06;0.70;;;0.70;;
24613;SDS011;12760;46.296;25.290;2023-05-10T11:40:33;0.50;;;0.50;;
24613;SDS011;12760;46.296;25.290;2023-05-10T11:42:59;0.70;;;0.70;;
24613;SDS011;12760;46.296;25.290;2023-05-10T11:45:25;0.73;;;0.73;;
24613;SDS011;12760;46.296;25.290;2023-05-10T11:47:53;0.60;;;0.60;;
24613;SDS011;12760;46.296;25.290;2023-05-10T11:50:18;0.50;;;0.50;;
24613;SDS011;12760;46.296;25.290;2023-05-10T11:52:44;0.80;;;0.80;;
24613;SDS011;12760;46.296;25.290;2023-05-10T11:55:10;0.50;;;0.50;;
24613;SDS011;12760;46.296;25.290;2023-05-10T11:57:37;0.45;;;0.45;;
24613;SDS011;12760;46.296;25.290;2023-05-10T12:00:03;0.52;;;0.52;;
24613;SDS011;12760;46.296;25.290;2023-05-10T12:02:30;1.02;;;1.02;;
24613;SDS011;12760;46.296;25.290;2023-05-10T12:04:56;0.50;;;0.50;;
24613;SDS011;12760;46.296;25.290;2023-05-10T12:07:22;0.82;;;0.82;;
24613;SDS011;12760;46.296;25.290;2023-05-10T12:10:04;0.82;;;0.82;;
24613;SDS011;12760;46.296;25.290;2023-05-10T12:12:39;2.15;;;0.70;;
24613;SDS011;12760;46.296;25.290;2023-05-10T12:15:27;0.95;;;0.95;;
24613;SDS011;12760;46.296;25.290;2023-05-10T12:17:53;0.52;;;0.52;;
24613;SDS011;12760;46.296;25.290;2023-05-10T12:20:19;0.80;;;0.80;;
24613;SDS011;12760;46.296;25.290;2023-05-10T12:22:56;0.93;;;0.93;;
24613;SDS011;12760;46.296;25.290;2023-05-10T12:25:23;1.48;;;1.38;;
24613;SDS011;12760;46.296;25.290;2023-05-10T12:27:55;2.05;;;1.85;;
24613;SDS011;12760;46.296;25.290;2023-05-10T12:30:30;0.82;;;0.82;;
24613;SDS011;12760;46.296;25.290;2023-05-10T12:35:47;0.63;;;0.63;;
24613;SDS011;12760;46.296;25.290;2023-05-10T12:38:28;0.63;;;0.63;;
24613;SDS011;12760;46.296;25.290;2023-05-10T12:41:00;2.35;;;2.15;;
24613;SDS011;12760;46.296;25.290;2023-05-10T12:43:31;0.47;;;0.47;;
24613;SDS011;12760;46.296;25.290;2023-05-10T12:45:57;0.93;;;0.88;;
24613;SDS011;12760;46.296;25.290;2023-05-10T12:48:23;1.17;;;1.17;;
24613;SDS011;12760;46.296;25.290;2023-05-10T12:50:49;0.80;;;0.80;;
24613;SDS011;12760;46.296;25.290;2023-05-10T12:53:15;0.47;;;0.47;;
24613;SDS011;12760;46.296;25.290;2023-05-10T12:55:42;0.40;;;0.40;;
24613;SDS011;12760;46.296;25.290;2023-05-10T12:58:08;0.50;;;0.50;;
24613;SDS011;12760;46.296;25.290;2023-05-10T13:00:33;0.60;;;0.60;;
24613;SDS011;12760;46.296;25.290;2023-05-10T13:02:59;0.40;;;0.40;;
24613;SDS011;12760;46.296;25.290;2023-05-10T13:05:25;0.85;;;0.85;;
24613;SDS011;12760;46.296;25.290;2023-05-10T13:07:51;0.68;;;0.68;;
24613;SDS011;12760;46.296;25.290;2023-05-10T13:10:16;0.80;;;0.80;;
24613;SDS011;12760;46.296;25.290;2023-05-10T13:12:42;1.40;;;1.30;;
24613;SDS011;12760;46.296;25.290;2023-05-10T13:15:08;0.45;;;0.45;;
24613;SDS011;12760;46.296;25.290;2023-05-10T13:17:34;0.50;;;0.50;;
24613;SDS011;12760;46.296;25.290;2023-05-10T13:19:59;0.77;;;0.77;;
24613;SDS011;12760;46.296;25.290;2023-05-10T13:22:25;0.65;;;0.65;;
24613;SDS011;12760;46.296;25.290;2023-05-10T13:24:51;0.63;;;0.63;;
24613;SDS011;12760;46.296;25.290;2023-05-10T13:27:17;0.45;;;0.45;;
24613;SDS011;12760;46.296;25.290;2023-05-10T13:29:42;0.60;;;0.60;;
24613;SDS011;12760;46.296;25.290;2023-05-10T13:32:08;0.57;;;0.57;;
24613;SDS011;12760;46.296;25.290;2023-05-10T13:34:34;0.50;;;0.50;;
24613;SDS011;12760;46.296;25.290;2023-05-10T13:37:00;3.15;;;1.25;;
24613;SDS011;12760;46.296;25.290;2023-05-10T13:39:26;0.63;;;0.63;;
24613;SDS011;12760;46.296;25.290;2023-05-10T13:41:52;0.70;;;0.70;;
24613;SDS011;12760;46.296;25.290;2023-05-10T13:44:19;0.80;;;0.80;;
24613;SDS011;12760;46.296;25.290;2023-05-10T13:46:45;1.30;;;1.30;;
24613;SDS011;12760;46.296;25.290;2023-05-10T13:49:11;0.95;;;0.95;;
24613;SDS011;12760;46.296;25.290;2023-05-10T13:51:37;2.38;;;2.28;;
24613;SDS011;12760;46.296;25.290;2023-05-10T13:54:02;0.80;;;0.80;;
24613;SDS011;12760;46.296;25.290;2023-05-10T13:56:28;0.73;;;0.73;;
24613;SDS011;12760;46.296;25.290;2023-05-10T13:58:55;0.60;;;0.60;;
24613;SDS011;12760;46.296;25.290;2023-05-10T14:01:22;0.50;;;0.50;;
24613;SDS011;12760;46.296;25.290;2023-05-10T14:03:48;0.80;;;0.80;;
24613;SDS011;12760;46.296;25.290;2023-05-10T14:06:14;0.70;;;0.70;;
24613;SDS011;12760;46.296;25.290;2023-05-10T14:08:39;4.68;;;1.98;;
24613;SDS011;12760;46.296;25.290;2023-05-10T14:11:06;0.40;;;0.40;;
24613;SDS011;12760;46.296;25.290;2023-05-10T14:13:31;0.60;;;0.60;;
24613;SDS011;12760;46.296;25.290;2023-05-10T14:15:57;1.85;;;1.77;;
24613;SDS011;12760;46.296;25.290;2023-05-10T14:18:25;0.80;;;0.80;;
24613;SDS011;12760;46.296;25.290;2023-05-10T14:20:51;0.52;;;0.52;;
24613;SDS011;12760;46.296;25.290;2023-05-10T14:23:17;0.90;;;0.90;;
24613;SDS011;12760;46.296;25.290;2023-05-10T14:25:48;1.05;;;1.05;;
24613;SDS011;12760;46.296;25.290;2023-05-10T14:28:15;0.70;;;0.70;;
24613;SDS011;12760;46.296;25.290;2023-05-10T14:30:40;0.60;;;0.60;;
24613;SDS011;12760;46.296;25.290;2023-05-10T14:33:06;3.58;;;2.90;;
24613;SDS011;12760;46.296;25.290;2023-05-10T14:35:32;1.13;;;1.13;;
24613;SDS011;12760;46.296;25.290;2023-05-10T14:37:58;0.65;;;0.65;;
24613;SDS011;12760;46.296;25.290;2023-05-10T14:40:24;0.40;;;0.40;;
24613;SDS011;12760;46.296;25.290;2023-05-10T14:42:50;0.63;;;0.63;;
24613;SDS011;12760;46.296;25.290;2023-05-10T14:45:17;0.50;;;0.50;;
24613;SDS011;12760;46.296;25.290;2023-05-10T14:47:43;1.63;;;1.52;;
24613;SDS011;12760;46.296;25.290;2023-05-10T14:50:08;0.60;;;0.60;;
24613;SDS011;12760;46.296;25.290;2023-05-10T14:52:34;4.43;;;1.67;;
24613;SDS011;12760;46.296;25.290;2023-05-10T14:55:01;1.05;;;1.05;;
24613;SDS011;12760;46.296;25.290;2023-05-10T14:57:27;1.92;;;1.30;;
24613;SDS011;12760;46.296;25.290;2023-05-10T14:59:54;0.70;;;0.70;;
24613;SDS011;12760;46.296;25.290;2023-05-10T15:02:21;0.80;;;0.80;;
24613;SDS011;12760;46.296;25.290;2023-05-10T15:04:47;0.50;;;0.50;;
24613;SDS011;12760;46.296;25.290;2023-05-10T15:07:13;1.00;;;1.00;;
24613;SDS011;12760;46.296;25.290;2023-05-10T15:09:41;8.35;;;0.80;;